Time;durP1;ratioP1;P1;durP2;ratioP2;P2;SDS_P1;SDS_P2;PMS_P1;PMS_P2;Temp;Humidity;BMP_temperature;BMP_pressure;BME280_temperature;BME280_humidity;BME280_pressure;Samples;Min_cycle;Max_cycle;Signal;HPM_P1;HPM_P2
2021/09/01 00:01:05;;;;;;;8.18;4.32;;;;;;;;;;4463822;32;20236;-51
2021/09/01 00:03:30;;;;;;;7.32;4.60;;;;;;;;;;4465009;32;20334;-51
2021/09/01 00:05:56;;;;;;;4.28;3.47;;;;;;;;;;4465293;32;20248;-52
2021/09/01 00:08:21;;;;;;;7.25;2.50;;;;;;;;;;4465696;32;20283;-52
2021/09/01 00:10:47;;;;;;;4.72;2.92;;;;;;;;;;4465411;32;20208;-52
2021/09/01 00:13:12;;;;;;;3.75;2.65;;;;;;;;;;4464951;32;20279;-52
2021/09/01 00:15:38;;;;;;;3.12;2.40;;;;;;;;;;4465278;32;20364;-52
2021/09/01 00:18:03;;;;;;;2.67;2.00;;;;;;;;;;4464746;32;20216;-52
2021/09/01 00:20:29;;;;;;;4.87;2.40;;;;;;;;;;4459193;32;20263;-52
2021/09/01 00:22:55;;;;;;;6.62;2.58;;;;;;;;;;4449647;32;20310;-53
2021/09/01 00:25:21;;;;;;;3.87;2.25;;;;;;;;;;4448020;32;20275;-52
2021/09/01 00:27:47;;;;;;;5.50;2.85;;;;;;;;;;4452868;32;20640;-52
2021/09/01 00:30:13;;;;;;;4.45;3.12;;;;;;;;;;4464802;32;20307;-53
2021/09/01 00:32:38;;;;;;;2.62;2.42;;;;;;;;;;4455995;32;20526;-52
2021/09/01 00:35:04;;;;;;;4.47;1.92;;;;;;;;;;4460238;32;20359;-52
2021/09/01 00:37:30;;;;;;;8.15;2.58;;;;;;;;;;4464546;32;20243;-51
2021/09/01 00:39:55;;;;;;;3.97;2.60;;;;;;;;;;4465520;32;20200;-52
2021/09/01 00:42:21;;;;;;;4.00;2.62;;;;;;;;;;4465171;32;20246;-53
2021/09/01 00:44:46;;;;;;;3.75;2.45;;;;;;;;;;4464434;32;20256;-52
2021/09/01 00:47:16;;;;;;;3.33;2.12;;;;;;;;;;4453099;32;20601;-51
2021/09/01 00:49:42;;;;;;;3.35;2.47;;;;;;;;;;4448922;32;20604;-52
2021/09/01 00:52:07;;;;;;;5.45;2.12;;;;;;;;;;4449033;32;20228;-51
2021/09/01 00:54:33;;;;;;;3.30;2.92;;;;;;;;;;4447707;32;20251;-52
2021/09/01 00:57:01;;;;;;;8.45;2.30;;;;;;;;;;4448837;32;20248;-52
2021/09/01 00:59:29;;;;;;;3.87;2.78;;;;;;;;;;4449255;32;20282;-51
2021/09/01 01:01:56;;;;;;;5.15;2.20;;;;;;;;;;4448924;32;20327;-52
2021/09/01 01:04:22;;;;;;;2.97;2.45;;;;;;;;;;4448857;32;20244;-52
2021/09/01 01:06:48;;;;;;;3.60;2.58;;;;;;;;;;4457032;32;20216;-51
2021/09/01 01:09:13;;;;;;;5.90;3.50;;;;;;;;;;4464243;32;20231;-52
2021/09/01 01:12:19;;;;;;;5.22;3.80;;;;;;;;;;4464830;32;20247;-51
2021/09/01 01:14:46;;;;;;;4.78;2.87;;;;;;;;;;4464479;32;20287;-52
2021/09/01 01:17:15;;;;;;;5.00;3.22;;;;;;;;;;4464812;32;20568;-52
2021/09/01 01:19:41;;;;;;;4.80;2.15;;;;;;;;;;4464157;32;20728;-52
2021/09/01 01:22:08;;;;;;;2.90;2.25;;;;;;;;;;4464430;32;20243;-52
2021/09/01 01:25:06;;;;;;;5.45;2.90;;;;;;;;;;4463989;32;20712;-52
2021/09/01 01:27:42;;;;;;;2.30;1.90;;;;;;;;;;4447383;32;20228;-52
2021/09/01 01:30:18;;;;;;;4.12;2.55;;;;;;;;;;4458310;32;20196;-52
2021/09/01 01:32:46;;;;;;;3.47;2.30;;;;;;;;;;4464256;32;20234;-51
2021/09/01 01:35:25;;;;;;;6.12;4.78;;;;;;;;;;4463813;32;20290;-53
2021/09/01 01:37:50;;;;;;;7.90;5.68;;;;;;;;;;4463855;32;20212;-51
2021/09/01 01:40:16;;;;;;;7.28;4.85;;;;;;;;;;4464375;32;20227;-51
2021/09/01 01:42:42;;;;;;;5.72;3.50;;;;;;;;;;4464275;32;20615;-51
2021/09/01 01:45:09;;;;;;;3.60;2.60;;;;;;;;;;4462553;32;20220;-52
2021/09/01 01:47:35;;;;;;;4.68;2.35;;;;;;;;;;4463543;32;20291;-52
2021/09/01 01:50:00;;;;;;;3.70;2.53;;;;;;;;;;4463960;32;20249;-51
2021/09/01 01:52:26;;;;;;;2.78;2.05;;;;;;;;;;4463343;32;20263;-51
2021/09/01 01:54:51;;;;;;;3.92;2.62;;;;;;;;;;4463695;32;20390;-51
2021/09/01 01:57:17;;;;;;;2.97;2.33;;;;;;;;;;4463908;32;20722;-52
2021/09/01 01:59:42;;;;;;;3.03;1.98;;;;;;;;;;4463842;32;20204;-52
2021/09/01 02:02:07;;;;;;;4.05;2.42;;;;;;;;;;4463471;32;20622;-52
2021/09/01 02:04:33;;;;;;;7.07;5.22;;;;;;;;;;4463675;32;20517;-52
2021/09/01 02:06:58;;;;;;;4.03;3.60;;;;;;;;;;4463467;32;20228;-51
2021/09/01 02:09:24;;;;;;;4.50;3.40;;;;;;;;;;4463766;32;20275;-50
2021/09/01 02:11:49;;;;;;;6.62;4.05;;;;;;;;;;4464138;32;20219;-51
2021/09/01 02:14:15;;;;;;;10.68;4.87;;;;;;;;;;4463773;32;20216;-51
2021/09/01 02:16:40;;;;;;;7.15;3.85;;;;;;;;;;4463777;32;20300;-51
2021/09/01 02:19:06;;;;;;;7.72;4.03;;;;;;;;;;4463736;32;20317;-50
2021/09/01 02:21:31;;;;;;;9.63;3.40;;;;;;;;;;4463749;32;20255;-51
2021/09/01 02:23:57;;;;;;;7.25;3.10;;;;;;;;;;4463604;32;20230;-50
2021/09/01 02:26:22;;;;;;;7.78;3.92;;;;;;;;;;4462276;32;20884;-50
2021/09/01 02:28:47;;;;;;;7.80;3.60;;;;;;;;;;4463941;32;20279;-51
2021/09/01 02:31:13;;;;;;;4.03;3.17;;;;;;;;;;4462645;32;20365;-50
2021/09/01 02:33:39;;;;;;;4.20;2.80;;;;;;;;;;4463647;32;20216;-50
2021/09/01 02:36:04;;;;;;;7.25;3.95;;;;;;;;;;4463470;32;20367;-50
2021/09/01 02:38:30;;;;;;;5.53;3.35;;;;;;;;;;4464338;32;20342;-52
2021/09/01 02:40:57;;;;;;;8.40;2.90;;;;;;;;;;4464787;32;20317;-52
2021/09/01 02:43:22;;;;;;;3.70;2.55;;;;;;;;;;4465009;32;20200;-51
2021/09/01 02:45:48;;;;;;;4.37;2.87;;;;;;;;;;4465272;32;20683;-53
2021/09/01 02:48:15;;;;;;;4.60;3.20;;;;;;;;;;4464568;32;20308;-52
2021/09/01 02:50:41;;;;;;;4.00;2.42;;;;;;;;;;4466434;32;20222;-51
2021/09/01 02:53:06;;;;;;;6.85;2.87;;;;;;;;;;4464565;32;20334;-52
2021/09/01 02:55:31;;;;;;;4.55;2.62;;;;;;;;;;4456354;32;20844;-51
2021/09/01 02:57:57;;;;;;;3.58;2.35;;;;;;;;;;4456099;32;20216;-51
2021/09/01 03:00:22;;;;;;;4.00;2.53;;;;;;;;;;4460962;32;20268;-51
2021/09/01 03:02:48;;;;;;;4.78;2.42;;;;;;;;;;4459993;32;20244;-52
2021/09/01 03:05:13;;;;;;;5.28;3.15;;;;;;;;;;4451010;32;20293;-51
2021/09/01 03:07:39;;;;;;;4.90;3.72;;;;;;;;;;4464260;32;20569;-51
2021/09/01 03:10:04;;;;;;;4.72;2.60;;;;;;;;;;4464599;32;20329;-51
2021/09/01 03:12:30;;;;;;;12.88;3.20;;;;;;;;;;4460776;32;20283;-51
2021/09/01 03:14:55;;;;;;;6.75;3.83;;;;;;;;;;4454112;32;20240;-51
2021/09/01 03:17:21;;;;;;;6.87;3.85;;;;;;;;;;4466078;32;20660;-51
2021/09/01 03:19:46;;;;;;;13.60;6.28;;;;;;;;;;4465814;32;20405;-51
2021/09/01 03:22:12;;;;;;;10.52;4.60;;;;;;;;;;4466273;32;20961;-51
2021/09/01 03:24:37;;;;;;;13.35;5.30;;;;;;;;;;4465815;32;20279;-51
2021/09/01 03:27:03;;;;;;;9.95;5.10;;;;;;;;;;4464474;32;20333;-51
2021/09/01 03:29:29;;;;;;;8.93;5.10;;;;;;;;;;4465433;32;20283;-51
2021/09/01 03:31:56;;;;;;;8.18;5.07;;;;;;;;;;4465807;32;20329;-53
2021/09/01 03:34:22;;;;;;;8.52;4.62;;;;;;;;;;4465651;32;20240;-51
2021/09/01 03:36:47;;;;;;;6.70;3.05;;;;;;;;;;4465753;32;20675;-51
2021/09/01 03:39:12;;;;;;;4.90;3.37;;;;;;;;;;4465813;32;20205;-51
2021/09/01 03:41:38;;;;;;;5.47;3.20;;;;;;;;;;4465532;32;20656;-50
2021/09/01 03:44:04;;;;;;;10.20;4.10;;;;;;;;;;4465832;32;20276;-51
2021/09/01 03:46:29;;;;;;;8.57;4.68;;;;;;;;;;4465794;32;20232;-51
2021/09/01 03:48:54;;;;;;;6.05;3.08;;;;;;;;;;4465217;32;20211;-51
2021/09/01 03:51:20;;;;;;;4.07;2.72;;;;;;;;;;4454314;32;20212;-51
2021/09/01 03:53:45;;;;;;;4.90;2.85;;;;;;;;;;4453468;32;20273;-51
2021/09/01 03:56:11;;;;;;;6.43;2.40;;;;;;;;;;4458341;32;20273;-51
2021/09/01 03:58:37;;;;;;;2.30;1.67;;;;;;;;;;4463310;32;20216;-51
2021/09/01 04:01:02;;;;;;;8.52;2.50;;;;;;;;;;4464359;32;21011;-51
2021/09/01 04:03:28;;;;;;;3.47;2.42;;;;;;;;;;4464912;32;20265;-51
2021/09/01 04:05:53;;;;;;;5.32;2.70;;;;;;;;;;4464949;32;20379;-51
2021/09/01 04:08:19;;;;;;;4.62;2.40;;;;;;;;;;4457241;32;20330;-51
2021/09/01 04:10:44;;;;;;;3.00;2.25;;;;;;;;;;4465270;32;20330;-51
2021/09/01 04:13:10;;;;;;;5.60;2.55;;;;;;;;;;4465280;32;20247;-51
2021/09/01 04:15:35;;;;;;;4.75;2.85;;;;;;;;;;4465062;32;20377;-51
2021/09/01 04:18:01;;;;;;;6.82;2.67;;;;;;;;;;4452106;32;20275;-51
2021/09/01 04:20:26;;;;;;;3.30;2.30;;;;;;;;;;4464675;32;20230;-51
2021/09/01 04:22:52;;;;;;;8.68;2.97;;;;;;;;;;4465511;32;20402;-51
2021/09/01 04:25:17;;;;;;;3.60;2.85;;;;;;;;;;4458598;32;20208;-51
2021/09/01 04:27:42;;;;;;;6.75;2.85;;;;;;;;;;4465413;32;20346;-52
2021/09/01 04:30:09;;;;;;;5.07;2.40;;;;;;;;;;4464115;32;20204;-51
2021/09/01 04:32:34;;;;;;;9.18;2.62;;;;;;;;;;4464724;32;20331;-52
2021/09/01 04:35:00;;;;;;;3.00;2.60;;;;;;;;;;4464070;32;20196;-51
2021/09/01 04:37:25;;;;;;;6.70;3.10;;;;;;;;;;4464030;32;20635;-51
2021/09/01 04:39:51;;;;;;;6.82;3.03;;;;;;;;;;4463970;32;20889;-51
2021/09/01 04:42:16;;;;;;;7.00;2.37;;;;;;;;;;4464452;32;20216;-51
2021/09/01 04:44:41;;;;;;;6.50;3.22;;;;;;;;;;4464629;32;20199;-51
2021/09/01 04:47:07;;;;;;;4.68;2.58;;;;;;;;;;4464331;32;20216;-51
2021/09/01 04:49:32;;;;;;;4.50;2.83;;;;;;;;;;4464380;32;20196;-51
2021/09/01 04:51:58;;;;;;;4.30;2.62;;;;;;;;;;4464687;32;20264;-51
2021/09/01 04:54:23;;;;;;;7.22;3.03;;;;;;;;;;4463877;32;20232;-51
2021/09/01 04:56:49;;;;;;;10.60;3.12;;;;;;;;;;4464326;32;20281;-50
2021/09/01 04:59:14;;;;;;;3.87;2.97;;;;;;;;;;4463381;32;20345;-50
2021/09/01 05:01:40;;;;;;;7.55;3.25;;;;;;;;;;4463249;32;20263;-50
2021/09/01 05:04:05;;;;;;;8.23;3.28;;;;;;;;;;4463891;32;20240;-50
2021/09/01 05:06:31;;;;;;;8.23;3.25;;;;;;;;;;4463843;32;20618;-50
2021/09/01 05:08:56;;;;;;;8.68;3.42;;;;;;;;;;4464066;32;20238;-51
2021/09/01 05:11:22;;;;;;;5.22;2.95;;;;;;;;;;4464286;32;20228;-51
2021/09/01 05:13:49;;;;;;;4.35;2.92;;;;;;;;;;4464061;32;20199;-51
2021/09/01 05:16:14;;;;;;;5.05;3.47;;;;;;;;;;4464058;32;20699;-51
2021/09/01 05:18:40;;;;;;;7.90;3.00;;;;;;;;;;4464106;32;20222;-51
2021/09/01 05:21:10;;;;;;;5.43;3.00;;;;;;;;;;4463369;32;20239;-51
2021/09/01 05:23:35;;;;;;;8.32;4.12;;;;;;;;;;4463920;32;20270;-51
2021/09/01 05:26:04;;;;;;;4.82;3.55;;;;;;;;;;4463889;32;20302;-51
2021/09/01 05:28:31;;;;;;;4.68;3.80;;;;;;;;;;4448298;32;20219;-51
2021/09/01 05:31:01;;;;;;;11.85;3.65;;;;;;;;;;4462644;32;20216;-50
2021/09/01 05:33:30;;;;;;;6.40;3.85;;;;;;;;;;4464193;32;20309;-50
2021/09/01 05:35:56;;;;;;;7.05;4.18;;;;;;;;;;4464197;32;20208;-51
2021/09/01 05:38:21;;;;;;;9.80;3.03;;;;;;;;;;4462854;32;20891;-51
2021/09/01 05:40:49;;;;;;;5.35;3.22;;;;;;;;;;4463819;32;20386;-51
2021/09/01 05:43:16;;;;;;;6.57;3.75;;;;;;;;;;4464356;32;20692;-51
2021/09/01 05:45:42;;;;;;;4.12;2.83;;;;;;;;;;4463779;32;20261;-51
2021/09/01 05:48:08;;;;;;;8.88;2.75;;;;;;;;;;4463865;32;20684;-51
2021/09/01 05:50:34;;;;;;;4.87;3.22;;;;;;;;;;4463214;32;20319;-51
2021/09/01 05:52:59;;;;;;;12.30;3.33;;;;;;;;;;4463712;32;20541;-51
2021/09/01 05:55:32;;;;;;;4.90;3.28;;;;;;;;;;4463449;32;20208;-50
2021/09/01 05:58:01;;;;;;;9.60;2.90;;;;;;;;;;4460648;32;20225;-52
2021/09/01 06:00:31;;;;;;;7.15;3.92;;;;;;;;;;4457628;32;20216;-51
2021/09/01 06:03:09;;;;;;;10.15;4.07;;;;;;;;;;4462435;32;20791;-51
2021/09/01 06:05:37;;;;;;;7.25;2.78;;;;;;;;;;4462078;32;20322;-52
2021/09/01 06:08:07;;;;;;;7.75;3.45;;;;;;;;;;4463202;32;20243;-51
2021/09/01 06:10:34;;;;;;;7.68;3.40;;;;;;;;;;4463651;32;20787;-51
2021/09/01 06:13:04;;;;;;;5.87;3.85;;;;;;;;;;4463018;32;20364;-50
2021/09/01 06:15:31;;;;;;;12.88;3.72;;;;;;;;;;4462904;32;20240;-50
2021/09/01 06:17:56;;;;;;;7.57;2.97;;;;;;;;;;4463848;32;20382;-51
2021/09/01 06:20:22;;;;;;;11.70;3.78;;;;;;;;;;4463162;32;20268;-51
2021/09/01 06:22:48;;;;;;;8.95;3.92;;;;;;;;;;4464638;32;20236;-50
2021/09/01 06:25:13;;;;;;;6.60;3.30;;;;;;;;;;4466078;32;20219;-51
2021/09/01 06:27:39;;;;;;;8.95;2.87;;;;;;;;;;4466598;32;20251;-51
2021/09/01 06:30:06;;;;;;;3.95;3.08;;;;;;;;;;4465934;32;20300;-50
2021/09/01 06:32:31;;;;;;;9.13;3.70;;;;;;;;;;4459532;32;20246;-50
2021/09/01 06:34:57;;;;;;;9.38;3.62;;;;;;;;;;4463815;32;20333;-51
2021/09/01 06:37:22;;;;;;;4.37;2.87;;;;;;;;;;4465363;32;20217;-50
2021/09/01 06:39:51;;;;;;;5.90;3.17;;;;;;;;;;4465432;32;20208;-50
2021/09/01 06:42:17;;;;;;;5.03;2.92;;;;;;;;;;4464913;32;20243;-50
2021/09/01 06:44:42;;;;;;;4.18;2.75;;;;;;;;;;4464167;32;20678;-50
2021/09/01 06:47:08;;;;;;;4.30;2.80;;;;;;;;;;4452671;32;20671;-51
2021/09/01 06:49:33;;;;;;;5.55;3.30;;;;;;;;;;4450608;32;20296;-51
2021/09/01 06:51:59;;;;;;;12.88;3.42;;;;;;;;;;4463794;32;20220;-51
2021/09/01 06:54:24;;;;;;;8.25;3.53;;;;;;;;;;4465919;32;20282;-51
2021/09/01 06:56:50;;;;;;;6.45;3.22;;;;;;;;;;4464294;32;20590;-51
2021/09/01 06:59:15;;;;;;;3.47;1.92;;;;;;;;;;4464663;32;20228;-51
2021/09/01 07:01:41;;;;;;;3.47;2.33;;;;;;;;;;4464298;32;20759;-51
2021/09/01 07:04:06;;;;;;;4.70;2.47;;;;;;;;;;4465580;32;20248;-51
2021/09/01 07:06:31;;;;;;;3.17;2.42;;;;;;;;;;4465644;32;20275;-51
2021/09/01 07:08:57;;;;;;;2.50;2.03;;;;;;;;;;4465857;32;20208;-51
2021/09/01 07:11:23;;;;;;;3.62;2.50;;;;;;;;;;4465479;32;20385;-51
2021/09/01 07:13:48;;;;;;;6.80;1.98;;;;;;;;;;4466195;32;20195;-51
2021/09/01 07:16:14;;;;;;;3.37;2.03;;;;;;;;;;4465624;32;20334;-52
2021/09/01 07:18:40;;;;;;;4.43;2.42;;;;;;;;;;4465172;32;20292;-51
2021/09/01 07:21:06;;;;;;;3.65;2.33;;;;;;;;;;4464647;32;20620;-52
2021/09/01 07:23:31;;;;;;;9.75;2.15;;;;;;;;;;4464197;32;20384;-53
2021/09/01 07:25:58;;;;;;;4.78;1.92;;;;;;;;;;4465394;32;20286;-50
2021/09/01 07:28:24;;;;;;;5.12;2.30;;;;;;;;;;4465182;32;20291;-51
2021/09/01 07:30:50;;;;;;;3.10;1.87;;;;;;;;;;4464709;32;20769;-51
2021/09/01 07:33:15;;;;;;;4.93;1.92;;;;;;;;;;4456895;32;20302;-51
2021/09/01 07:35:41;;;;;;;4.25;2.12;;;;;;;;;;4465453;32;20351;-53
2021/09/01 07:38:06;;;;;;;2.72;1.50;;;;;;;;;;4464240;32;20262;-51
2021/09/01 07:40:32;;;;;;;3.92;1.70;;;;;;;;;;4465517;32;20720;-51
2021/09/01 07:42:58;;;;;;;3.08;1.95;;;;;;;;;;4451826;32;20303;-52
2021/09/01 07:45:23;;;;;;;2.80;1.87;;;;;;;;;;4453507;32;20335;-51
2021/09/01 07:47:51;;;;;;;2.72;1.55;;;;;;;;;;4465758;32;20282;-51
2021/09/01 07:50:20;;;;;;;3.03;1.87;;;;;;;;;;4465848;32;20284;-51
2021/09/01 07:52:47;;;;;;;1.75;1.52;;;;;;;;;;4465493;32;20228;-52
2021/09/01 07:55:13;;;;;;;2.53;1.55;;;;;;;;;;4465546;32;20441;-53
2021/09/01 07:57:39;;;;;;;2.05;1.70;;;;;;;;;;4463027;32;20283;-52
2021/09/01 08:00:07;;;;;;;2.20;1.50;;;;;;;;;;4463892;32;20754;-52
2021/09/01 08:02:32;;;;;;;1.48;1.20;;;;;;;;;;4462417;32;20351;-52
2021/09/01 08:04:58;;;;;;;5.78;1.40;;;;;;;;;;4464336;32;20597;-52
2021/09/01 08:07:23;;;;;;;4.65;2.00;;;;;;;;;;4457704;32;20217;-52
2021/09/01 08:09:48;;;;;;;2.08;1.35;;;;;;;;;;4457168;32;20212;-52
2021/09/01 08:12:14;;;;;;;1.98;1.30;;;;;;;;;;4465295;32;21136;-52
2021/09/01 08:14:39;;;;;;;3.90;1.27;;;;;;;;;;4464576;32;20232;-52
2021/09/01 08:17:05;;;;;;;2.40;1.30;;;;;;;;;;4464089;32;20267;-52
2021/09/01 08:19:30;;;;;;;1.50;1.25;;;;;;;;;;4448350;32;20239;-52
2021/09/01 08:21:56;;;;;;;3.05;1.40;;;;;;;;;;4463140;32;20252;-52
2021/09/01 08:24:21;;;;;;;1.48;1.20;;;;;;;;;;4463417;32;20216;-52
2021/09/01 08:26:47;;;;;;;4.18;1.10;;;;;;;;;;4463285;32;20216;-52
2021/09/01 08:29:13;;;;;;;1.33;1.17;;;;;;;;;;4464576;32;20212;-52
2021/09/01 08:31:38;;;;;;;2.80;1.45;;;;;;;;;;4462052;32;20335;-52
2021/09/01 08:34:03;;;;;;;2.15;1.02;;;;;;;;;;4461040;32;20200;-52
2021/09/01 08:36:29;;;;;;;1.05;0.95;;;;;;;;;;4463237;32;20258;-52
2021/09/01 08:38:54;;;;;;;0.80;0.80;;;;;;;;;;4464235;32;20436;-53
2021/09/01 08:41:21;;;;;;;1.37;1.12;;;;;;;;;;4463496;32;20219;-52
2021/09/01 08:43:47;;;;;;;7.68;1.55;;;;;;;;;;4463657;32;20273;-52
2021/09/01 08:46:13;;;;;;;1.85;1.12;;;;;;;;;;4463020;32;20586;-52
2021/09/01 08:48:40;;;;;;;1.75;1.23;;;;;;;;;;4464716;32;20257;-52
2021/09/01 08:51:07;;;;;;;1.00;0.90;;;;;;;;;;4464062;32;20645;-52
2021/09/01 08:53:35;;;;;;;1.50;1.00;;;;;;;;;;4464567;32;20269;-53
2021/09/01 08:56:00;;;;;;;3.60;1.27;;;;;;;;;;4463895;32;20231;-52
2021/09/01 08:58:26;;;;;;;1.10;0.95;;;;;;;;;;4463591;32;20639;-52
2021/09/01 09:00:52;;;;;;;0.75;0.70;;;;;;;;;;4463448;32;20684;-52
2021/09/01 09:03:17;;;;;;;5.93;1.48;;;;;;;;;;4463024;32;20248;-52
2021/09/01 09:05:44;;;;;;;1.42;1.10;;;;;;;;;;4464128;32;20306;-52
2021/09/01 09:08:16;;;;;;;1.87;1.30;;;;;;;;;;4460307;32;20250;-52
2021/09/01 09:10:46;;;;;;;2.37;1.10;;;;;;;;;;4462964;32;20325;-52
2021/09/01 09:13:24;;;;;;;1.50;1.25;;;;;;;;;;4464286;32;20224;-52
2021/09/01 09:16:12;;;;;;;7.00;1.85;;;;;;;;;;4463464;32;20237;-52
2021/09/01 09:18:38;;;;;;;2.00;1.12;;;;;;;;;;4464055;32;20208;-52
2021/09/01 09:21:18;;;;;;;1.65;1.00;;;;;;;;;;4463580;32;20273;-52
2021/09/01 09:23:45;;;;;;;1.67;1.17;;;;;;;;;;4464045;32;20220;-52
2021/09/01 09:26:20;;;;;;;1.42;1.10;;;;;;;;;;4463679;32;20231;-52
2021/09/01 09:28:45;;;;;;;2.30;1.15;;;;;;;;;;4463752;32;20297;-52
2021/09/01 09:31:10;;;;;;;1.12;1.00;;;;;;;;;;4462010;32;20732;-51
2021/09/01 09:33:40;;;;;;;0.98;0.93;;;;;;;;;;4459528;32;20224;-51
2021/09/01 09:36:05;;;;;;;6.45;1.20;;;;;;;;;;4457767;32;20230;-51
2021/09/01 09:38:31;;;;;;;1.42;1.15;;;;;;;;;;4463339;32;20763;-51
2021/09/01 09:40:57;;;;;;;1.75;1.12;;;;;;;;;;4459768;32;20262;-52
2021/09/01 09:43:24;;;;;;;1.77;1.30;;;;;;;;;;4455285;32;20217;-51
2021/09/01 09:46:03;;;;;;;1.20;1.05;;;;;;;;;;4456748;32;20252;-52
2021/09/01 09:48:33;;;;;;;1.08;0.95;;;;;;;;;;4455347;32;20209;-51
2021/09/01 09:51:01;;;;;;;1.48;0.98;;;;;;;;;;4456784;32;20220;-51
2021/09/01 09:53:34;;;;;;;3.33;1.20;;;;;;;;;;4453745;32;20204;-51
2021/09/01 09:56:12;;;;;;;3.42;1.30;;;;;;;;;;4455592;32;20216;-52
2021/09/01 09:58:49;;;;;;;1.00;0.95;;;;;;;;;;4461332;32;20193;-52
2021/09/01 10:01:18;;;;;;;2.35;0.70;;;;;;;;;;4465462;32;20342;-53
2021/09/01 10:03:44;;;;;;;2.78;1.00;;;;;;;;;;4463796;32;20311;-52
2021/09/01 10:06:14;;;;;;;2.00;1.20;;;;;;;;;;4465972;32;20231;-52
2021/09/01 10:08:40;;;;;;;1.52;1.20;;;;;;;;;;4459284;32;20216;-52
2021/09/01 10:11:11;;;;;;;3.47;1.50;;;;;;;;;;4465683;32;20780;-52
2021/09/01 10:13:42;;;;;;;1.55;1.20;;;;;;;;;;4466436;32;20235;-52
2021/09/01 10:16:20;;;;;;;1.00;0.90;;;;;;;;;;4466021;32;20522;-52
2021/09/01 10:19:04;;;;;;;1.27;1.00;;;;;;;;;;4466635;32;20291;-52
2021/09/01 10:21:32;;;;;;;2.85;1.62;;;;;;;;;;4466261;32;20717;-52
2021/09/01 10:24:14;;;;;;;1.75;1.12;;;;;;;;;;4465586;32;20544;-52
2021/09/01 10:26:39;;;;;;;2.08;1.17;;;;;;;;;;4462423;32;20644;-52
2021/09/01 10:29:05;;;;;;;1.30;1.12;;;;;;;;;;4459152;32;20238;-52
2021/09/01 10:31:34;;;;;;;2.00;1.17;;;;;;;;;;4458389;32;20635;-52
2021/09/01 10:34:21;;;;;;;1.90;1.17;;;;;;;;;;4463499;32;20604;-52
2021/09/01 10:36:51;;;;;;;1.42;1.08;;;;;;;;;;4465291;32;20653;-52
2021/09/01 10:39:38;;;;;;;2.00;1.08;;;;;;;;;;4460834;32;20295;-52
2021/09/01 10:42:52;;;;;;;1.27;0.82;;;;;;;;;;4451822;32;20370;-52
2021/09/01 10:45:21;;;;;;;1.50;1.20;;;;;;;;;;4440317;32;20275;-52
2021/09/01 10:47:49;;;;;;;1.98;1.20;;;;;;;;;;4456910;32;20241;-53
2021/09/01 10:50:16;;;;;;;2.53;1.30;;;;;;;;;;4466239;32;20445;-52
2021/09/01 10:53:07;;;;;;;1.70;1.48;;;;;;;;;;4466996;32;20337;-53
2021/09/01 10:55:45;;;;;;;1.87;1.45;;;;;;;;;;4466120;32;20259;-51
2021/09/01 10:58:21;;;;;;;2.33;1.40;;;;;;;;;;4464970;32;20256;-51
2021/09/01 11:01:21;;;;;;;2.17;1.55;;;;;;;;;;4465114;32;20207;-51
2021/09/01 11:03:59;;;;;;;2.72;1.62;;;;;;;;;;4449537;32;20227;-51
2021/09/01 11:06:26;;;;;;;1.40;1.27;;;;;;;;;;4449192;32;20361;-51
2021/09/01 11:09:09;;;;;;;5.85;2.15;;;;;;;;;;4449276;32;20317;-51
2021/09/01 11:11:55;;;;;;;2.08;1.87;;;;;;;;;;4448194;32;20331;-52
2021/09/01 11:14:47;;;;;;;2.22;2.03;;;;;;;;;;4449615;32;20224;-51
2021/09/01 11:17:34;;;;;;;2.92;1.80;;;;;;;;;;4450154;32;20229;-51
2021/09/01 11:20:02;;;;;;;4.15;1.73;;;;;;;;;;4455780;32;20266;-51
2021/09/01 11:22:30;;;;;;;1.65;1.55;;;;;;;;;;4465488;32;20300;-51
2021/09/01 11:25:10;;;;;;;2.33;1.85;;;;;;;;;;4465315;32;20246;-52
2021/09/01 11:27:44;;;;;;;2.25;1.62;;;;;;;;;;4465424;32;20207;-51
2021/09/01 11:30:11;;;;;;;1.67;1.25;;;;;;;;;;4465282;32;20235;-51
2021/09/01 11:32:39;;;;;;;1.30;1.20;;;;;;;;;;4464176;32;20291;-51
2021/09/01 11:35:09;;;;;;;1.33;1.08;;;;;;;;;;4459332;32;20330;-51
2021/09/01 11:37:35;;;;;;;2.47;1.65;;;;;;;;;;4448994;32;20363;-52
2021/09/01 11:40:01;;;;;;;1.60;1.50;;;;;;;;;;4453426;32;20562;-52
2021/09/01 11:42:26;;;;;;;1.40;1.30;;;;;;;;;;4464927;32;20683;-51
2021/09/01 11:44:57;;;;;;;1.23;1.00;;;;;;;;;;4465048;32;20226;-51
2021/09/01 11:47:23;;;;;;;1.25;1.15;;;;;;;;;;4465014;32;20248;-51
2021/09/01 11:49:50;;;;;;;2.58;1.35;;;;;;;;;;4464791;32;20358;-51
2021/09/01 11:52:32;;;;;;;2.37;1.30;;;;;;;;;;4457774;32;20287;-50
2021/09/01 11:54:58;;;;;;;5.28;1.45;;;;;;;;;;4449010;32;20240;-51
2021/09/01 11:57:27;;;;;;;2.33;1.50;;;;;;;;;;4449271;32;20783;-51
2021/09/01 11:59:53;;;;;;;1.98;1.50;;;;;;;;;;4463938;32;20242;-51
2021/09/01 12:02:22;;;;;;;1.90;1.65;;;;;;;;;;4458000;32;20244;-51
2021/09/01 12:04:47;;;;;;;2.22;1.52;;;;;;;;;;4449662;32;20200;-51
2021/09/01 12:07:24;;;;;;;1.95;1.70;;;;;;;;;;4452370;32;20273;-50
2021/09/01 12:09:53;;;;;;;2.05;1.52;;;;;;;;;;4462780;32;20199;-52
2021/09/01 12:12:19;;;;;;;1.60;1.30;;;;;;;;;;4464346;32;20254;-51
2021/09/01 12:14:44;;;;;;;1.67;1.35;;;;;;;;;;4449423;32;20705;-51
2021/09/01 12:17:23;;;;;;;2.70;1.67;;;;;;;;;;4449208;32;20242;-52
2021/09/01 12:19:49;;;;;;;1.85;1.40;;;;;;;;;;4439485;32;20220;-50
2021/09/01 12:22:47;;;;;;;1.10;1.02;;;;;;;;;;4451076;32;20313;-51
2021/09/01 12:25:20;;;;;;;1.55;1.45;;;;;;;;;;4422729;32;20295;-52
2021/09/01 12:28:21;;;;;;;2.80;1.52;;;;;;;;;;4449649;32;20604;-51
2021/09/01 12:30:51;;;;;;;3.72;1.80;;;;;;;;;;4463155;32;20213;-51
2021/09/01 12:33:23;;;;;;;2.33;1.73;;;;;;;;;;4464501;32;20302;-52
2021/09/01 12:35:59;;;;;;;1.90;1.60;;;;;;;;;;4464541;32;20211;-52
2021/09/01 12:38:26;;;;;;;2.45;1.67;;;;;;;;;;4464073;32;20342;-50
2021/09/01 12:40:53;;;;;;;2.25;1.50;;;;;;;;;;4463506;32;20280;-51
2021/09/01 12:43:22;;;;;;;2.37;1.83;;;;;;;;;;4463521;32;20223;-51
2021/09/01 12:45:58;;;;;;;2.40;2.10;;;;;;;;;;4464053;32;20278;-51
2021/09/01 12:48:32;;;;;;;1.70;1.58;;;;;;;;;;4463663;32;20251;-52
2021/09/01 12:50:58;;;;;;;2.10;1.50;;;;;;;;;;4462803;32;20230;-52
2021/09/01 12:53:24;;;;;;;4.82;1.73;;;;;;;;;;4463578;32;20326;-52
2021/09/01 12:55:51;;;;;;;3.55;1.42;;;;;;;;;;4450257;32;20425;-53
2021/09/01 12:58:16;;;;;;;3.12;2.30;;;;;;;;;;4448254;32;20229;-51
2021/09/01 13:00:42;;;;;;;2.97;1.62;;;;;;;;;;4448553;32;20352;-51
2021/09/01 13:03:08;;;;;;;3.53;2.03;;;;;;;;;;4447778;32;20755;-52
2021/09/01 13:05:34;;;;;;;1.60;1.50;;;;;;;;;;4448201;32;20283;-51
2021/09/01 13:08:00;;;;;;;3.17;1.60;;;;;;;;;;4450586;32;20248;-50
2021/09/01 13:10:26;;;;;;;1.62;1.40;;;;;;;;;;4463758;32;20291;-51
2021/09/01 13:12:53;;;;;;;2.47;1.70;;;;;;;;;;4464213;32;20283;-51
2021/09/01 13:15:20;;;;;;;2.70;1.37;;;;;;;;;;4461820;32;20664;-51
2021/09/01 13:17:45;;;;;;;2.20;1.70;;;;;;;;;;4457145;32;20766;-51
2021/09/01 13:20:17;;;;;;;2.47;1.65;;;;;;;;;;4448313;32;20287;-51
2021/09/01 13:22:43;;;;;;;3.33;2.22;;;;;;;;;;4459939;32;20334;-51
2021/09/01 13:25:11;;;;;;;48.63;19.23;;;;;;;;;;4463777;32;20188;-51
2021/09/01 13:27:37;;;;;;;6.50;3.58;;;;;;;;;;4464398;32;20307;-52
2021/09/01 13:30:04;;;;;;;2.90;2.50;;;;;;;;;;4464104;32;20242;-51
2021/09/01 13:32:30;;;;;;;2.45;2.25;;;;;;;;;;4463744;32;20882;-51
2021/09/01 13:34:56;;;;;;;2.85;1.95;;;;;;;;;;4450710;32;20316;-51
2021/09/01 13:37:21;;;;;;;3.42;2.30;;;;;;;;;;4448164;32;20686;-51
2021/09/01 13:39:46;;;;;;;3.12;2.55;;;;;;;;;;4447902;32;20241;-51
2021/09/01 13:42:12;;;;;;;5.57;3.00;;;;;;;;;;4448058;32;20253;-51
2021/09/01 13:44:38;;;;;;;5.03;2.60;;;;;;;;;;4448194;32;20192;-51
2021/09/01 13:47:04;;;;;;;5.57;2.53;;;;;;;;;;4454359;32;20239;-52
2021/09/01 13:49:29;;;;;;;3.37;2.20;;;;;;;;;;4463811;32;20643;-52
2021/09/01 13:51:55;;;;;;;5.55;2.47;;;;;;;;;;4463057;32;20324;-52
2021/09/01 13:54:20;;;;;;;6.00;2.53;;;;;;;;;;4456978;32;20200;-51
2021/09/01 13:56:46;;;;;;;4.30;3.08;;;;;;;;;;4447904;32;20316;-52
2021/09/01 13:59:12;;;;;;;2.30;2.10;;;;;;;;;;4455273;32;20305;-51
2021/09/01 14:01:39;;;;;;;3.70;2.90;;;;;;;;;;4462416;32;20266;-52
2021/09/01 14:04:05;;;;;;;2.87;2.42;;;;;;;;;;4462940;32;20298;-51
2021/09/01 14:06:30;;;;;;;4.55;3.35;;;;;;;;;;4463406;32;20663;-52
2021/09/01 14:08:56;;;;;;;2.92;2.53;;;;;;;;;;4463096;32;20216;-52
2021/09/01 14:11:21;;;;;;;5.75;2.30;;;;;;;;;;4463115;32;20224;-51
2021/09/01 14:13:47;;;;;;;3.92;2.55;;;;;;;;;;4463383;32;20216;-51
2021/09/01 14:16:14;;;;;;;6.68;3.05;;;;;;;;;;4463244;32;20240;-52
2021/09/01 14:18:43;;;;;;;5.78;2.85;;;;;;;;;;4463239;32;20270;-52
2021/09/01 14:21:08;;;;;;;2.87;2.37;;;;;;;;;;4463189;32;20232;-52
2021/09/01 14:23:34;;;;;;;3.47;2.35;;;;;;;;;;4463227;32;20258;-52
2021/09/01 14:25:59;;;;;;;2.65;1.92;;;;;;;;;;4463566;32;20207;-52
2021/09/01 14:28:25;;;;;;;3.40;1.90;;;;;;;;;;4451592;32;20345;-52
2021/09/01 14:30:51;;;;;;;4.25;2.00;;;;;;;;;;4448050;32;20317;-52
2021/09/01 14:33:16;;;;;;;5.20;2.12;;;;;;;;;;4458851;32;20799;-52
2021/09/01 14:35:42;;;;;;;1.98;1.60;;;;;;;;;;4463500;32;20514;-52
2021/09/01 14:38:07;;;;;;;3.67;2.17;;;;;;;;;;4463147;32;20243;-52
2021/09/01 14:40:33;;;;;;;2.28;1.40;;;;;;;;;;4448757;32;20241;-51
2021/09/01 14:42:58;;;;;;;1.73;1.50;;;;;;;;;;4447939;32;20247;-52
2021/09/01 14:45:24;;;;;;;1.30;1.20;;;;;;;;;;4459664;32;20308;-51
2021/09/01 14:47:49;;;;;;;2.35;1.80;;;;;;;;;;4461230;32;20287;-51